Airville, Pennsylvania
Current Conditions -  °F | °C
As of 6:53 PM on Friday 19 Dec 2014 (Local Time) from KLNS Reporting Station
Clear Clear  
Wind Chill: -3°   Ceiling: Unl
Heat Index:   Visibility: 10mi
Dew Point: -7°   Wind: 6mph
Humidity: 61%   Direction: 330°NNW
Pressure: 30.17"   Gusts: NA
Location:  39.83°N, 76.41°W
Report Text: KLNS 192353Z 33005KT 10SM CLR 00/M07 A3017 RMK AO2 SLP219 T00001067 10050 21006 51018
Loading
Personal Weather Stations






























Interactive Weather Map New forecast layout! Learn more

10-Day Weather Forecast

Advertisements
Track Severe Weather on mobile